ALAS71 MPMG-MPEJ
Flight info
| Callsign | ALAS71 |
|---|---|
| Flight time | 0h 19m |
| Altitude | 2500 |
| Route | DIRECT |
| Aircraft | DA40/L-SG/C |
Departure
| Time | 2026-05-06 22:35 |
|---|---|
| Airport | Marcos A. Gelabert International Airport (MPMG) |
Arrival
| Time | 2026-05-06 22:54 |
|---|---|
| Airport | Enrique Adolfo Jimenez Airport (MPEJ) |
| Time | Latitude | Longitude | Altitude | Speed | Heading |
|---|---|---|---|---|---|
| 2026-05-06 22:18 | 8.96878 | -79.55815 | 28 ft | 0 kts | 73° |
| 2026-05-06 22:27 | 8.96878 | -79.55809 | 28 ft | 3 kts | 95° |
| 2026-05-06 22:27 | 8.96857 | -79.55804 | 28 ft | 6 kts | 185° |
| 2026-05-06 22:27 | 8.96828 | -79.55807 | 28 ft | 7 kts | 185° |
| 2026-05-06 22:27 | 8.96770 | -79.55812 | 28 ft | 7 kts | 185° |
| 2026-05-06 22:28 | 8.96723 | -79.55816 | 28 ft | 6 kts | 184° |
| 2026-05-06 22:28 | 8.96716 | -79.55816 | 28 ft | 6 kts | 184° |
| 2026-05-06 22:28 | 8.96701 | -79.55818 | 28 ft | 6 kts | 185° |
| 2026-05-06 22:29 | 8.96648 | -79.55822 | 28 ft | 9 kts | 184° |
| 2026-05-06 22:29 | 8.96589 | -79.55827 | 28 ft | 8 kts | 183° |
| 2026-05-06 22:29 | 8.96549 | -79.55809 | 28 ft | 6 kts | 126° |
| 2026-05-06 22:29 | 8.96532 | -79.55776 | 28 ft | 5 kts | 110° |
| 2026-05-06 22:30 | 8.96524 | -79.55744 | 28 ft | 5 kts | 98° |
| 2026-05-06 22:30 | 8.96523 | -79.55726 | 28 ft | 0 kts | 64° |
| 2026-05-06 22:34 | 8.96536 | -79.55686 | 27 ft | 14 kts | 90° |
| 2026-05-06 22:34 | 8.96590 | -79.55623 | 26 ft | 14 kts | 5° |
| 2026-05-06 22:34 | 8.96735 | -79.55610 | 26 ft | 42 kts | 4° |
| 2026-05-06 22:34 | 8.97175 | -79.55568 | 54 ft | 77 kts | 359° |
| 2026-05-06 22:35 | 8.97712 | -79.55490 | 250 ft | 80 kts | 4° |
| 2026-05-06 22:35 | 8.98245 | -79.55427 | 532 ft | 77 kts | 356° |
| 2026-05-06 22:35 | 8.98808 | -79.55428 | 747 ft | 83 kts | 359° |
| 2026-05-06 22:35 | 8.99053 | -79.55403 | 883 ft | 78 kts | 2° |
| 2026-05-06 22:36 | 8.99628 | -79.55346 | 1027 ft | 86 kts | 1° |
| 2026-05-06 22:36 | 9.00205 | -79.55360 | 1276 ft | 80 kts | 353° |
| 2026-05-06 22:36 | 9.00712 | -79.55562 | 1438 ft | 83 kts | 317° |
| 2026-05-06 22:36 | 9.00951 | -79.56081 | 1572 ft | 89 kts | 279° |
| 2026-05-06 22:37 | 9.01016 | -79.56751 | 1796 ft | 102 kts | 276° |
| 2026-05-06 22:37 | 9.01077 | -79.57488 | 2119 ft | 96 kts | 279° |
| 2026-05-06 22:37 | 9.01121 | -79.58165 | 2379 ft | 101 kts | 277° |
| 2026-05-06 22:37 | 9.01275 | -79.58880 | 2441 ft | 119 kts | 295° |
| 2026-05-06 22:38 | 9.01597 | -79.59627 | 2571 ft | 115 kts | 298° |
| 2026-05-06 22:38 | 9.01956 | -79.60385 | 2543 ft | 120 kts | 298° |
| 2026-05-06 22:38 | 9.02343 | -79.61153 | 2502 ft | 124 kts | 300° |
| 2026-05-06 22:38 | 9.02736 | -79.61911 | 2554 ft | 122 kts | 300° |
| 2026-05-06 22:39 | 9.03143 | -79.62688 | 2480 ft | 128 kts | 302° |
| 2026-05-06 22:39 | 9.03612 | -79.63451 | 2594 ft | 119 kts | 310° |
| 2026-05-06 22:39 | 9.04160 | -79.64074 | 2601 ft | 124 kts | 317° |
| 2026-05-06 22:39 | 9.04856 | -79.64606 | 2573 ft | 129 kts | 331° |
| 2026-05-06 22:40 | 9.04950 | -79.64662 | 2555 ft | 130 kts | 333° |
| 2026-05-06 22:40 | 9.05587 | -79.64994 | 2479 ft | 134 kts | 333° |
| 2026-05-06 22:40 | 9.06299 | -79.65562 | 2496 ft | 132 kts | 314° |
| 2026-05-06 22:41 | 9.07549 | -79.66806 | 2536 ft | 128 kts | 331° |
| 2026-05-06 22:41 | 9.08390 | -79.67179 | 2501 ft | 130 kts | 340° |
| 2026-05-06 22:41 | 9.09198 | -79.67523 | 2461 ft | 129 kts | 336° |
| 2026-05-06 22:42 | 9.09927 | -79.68000 | 2503 ft | 122 kts | 323° |
| 2026-05-06 22:42 | 9.10583 | -79.68597 | 2419 ft | 129 kts | 319° |
| 2026-05-06 22:42 | 9.11158 | -79.69236 | 2584 ft | 118 kts | 309° |
| 2026-05-06 22:42 | 9.11548 | -79.70003 | 2534 ft | 128 kts | 293° |
| 2026-05-06 22:43 | 9.11815 | -79.70831 | 2657 ft | 117 kts | 291° |
| 2026-05-06 22:43 | 9.12061 | -79.71661 | 2525 ft | 131 kts | 288° |
| 2026-05-06 22:43 | 9.12246 | -79.72535 | 2570 ft | 125 kts | 285° |
| 2026-05-06 22:43 | 9.12520 | -79.73396 | 2485 ft | 128 kts | 296° |
| 2026-05-06 22:44 | 9.12964 | -79.74146 | 2586 ft | 123 kts | 308° |
| 2026-05-06 22:44 | 9.13493 | -79.74833 | 2648 ft | 123 kts | 312° |
| 2026-05-06 22:44 | 9.14112 | -79.75414 | 2650 ft | 124 kts | 326° |
| 2026-05-06 22:44 | 9.14857 | -79.75871 | 2637 ft | 124 kts | 334° |
| 2026-05-06 22:45 | 9.15581 | -79.76320 | 2626 ft | 123 kts | 326° |
| 2026-05-06 22:45 | 9.16239 | -79.76917 | 2521 ft | 128 kts | 318° |
| 2026-05-06 22:45 | 9.16852 | -79.77546 | 2538 ft | 124 kts | 318° |
| 2026-05-06 22:45 | 9.17450 | -79.78196 | 2465 ft | 127 kts | 315° |
| 2026-05-06 22:46 | 9.18050 | -79.78825 | 2499 ft | 122 kts | 317° |
| 2026-05-06 22:46 | 9.18674 | -79.79433 | 2431 ft | 127 kts | 319° |
| 2026-05-06 22:46 | 9.19285 | -79.80064 | 2441 ft | 124 kts | 315° |
| 2026-05-06 22:46 | 9.19649 | -79.80514 | 2408 ft | 126 kts | 311° |
| 2026-05-06 22:47 | 9.20204 | -79.81180 | 2471 ft | 118 kts | 316° |
| 2026-05-06 22:47 | 9.20815 | -79.81729 | 2477 ft | 119 kts | 328° |
| 2026-05-06 22:47 | 9.21531 | -79.82167 | 2445 ft | 121 kts | 330° |
| 2026-05-06 22:47 | 9.22185 | -79.82687 | 2487 ft | 119 kts | 321° |
| 2026-05-06 22:48 | 9.22470 | -79.82954 | 2482 ft | 120 kts | 319° |
| 2026-05-06 22:49 | 9.22918 | -79.83366 | 2501 ft | 121 kts | 323° |
| 2026-05-06 22:49 | 9.23603 | -79.83835 | 2576 ft | 118 kts | 333° |
| 2026-05-06 22:49 | 9.24320 | -79.84228 | 2619 ft | 114 kts | 336° |
| 2026-05-06 22:50 | 9.25021 | -79.84612 | 2464 ft | 119 kts | 336° |
| 2026-05-06 22:50 | 9.25744 | -79.85025 | 2377 ft | 115 kts | 333° |
| 2026-05-06 22:50 | 9.26452 | -79.85392 | 2232 ft | 117 kts | 338° |
| 2026-05-06 22:50 | 9.27161 | -79.85786 | 2143 ft | 115 kts | 331° |
| 2026-05-06 22:51 | 9.27792 | -79.86286 | 2008 ft | 115 kts | 322° |
| 2026-05-06 22:51 | 9.28408 | -79.86793 | 1825 ft | 111 kts | 334° |
| 2026-05-06 22:51 | 9.29129 | -79.87027 | 1539 ft | 111 kts | 356° |
| 2026-05-06 22:51 | 9.29913 | -79.87004 | 1244 ft | 111 kts | 6° |
| 2026-05-06 22:52 | 9.30613 | -79.86936 | 1076 ft | 95 kts | 3° |
| 2026-05-06 22:52 | 9.31234 | -79.86906 | 886 ft | 87 kts | 4° |
| 2026-05-06 22:52 | 9.31841 | -79.86881 | 719 ft | 88 kts | 4° |
| 2026-05-06 22:52 | 9.32462 | -79.86840 | 532 ft | 89 kts | 2° |
| 2026-05-06 22:53 | 9.32831 | -79.86822 | 484 ft | 86 kts | 358° |
| 2026-05-06 22:53 | 9.33416 | -79.86819 | 366 ft | 88 kts | 358° |
| 2026-05-06 22:54 | 9.34024 | -79.86797 | 260 ft | 81 kts | 2° |
| 2026-05-06 22:54 | 9.34549 | -79.86778 | 97 ft | 75 kts | 2° |
| 2026-05-06 22:54 | 9.35021 | -79.86764 | 45 ft | 59 kts | 2° |
| 2026-05-06 22:54 | 9.35354 | -79.86752 | 31 ft | 43 kts | 1° |
| 2026-05-06 22:55 | 9.35784 | -79.86740 | 70 ft | 74 kts | 359° |
| 2026-05-06 22:55 | 9.36290 | -79.86721 | 263 ft | 75 kts | 0° |
| 2026-05-06 22:55 | 9.36834 | -79.86726 | 467 ft | 79 kts | 359° |
| 2026-05-06 22:55 | 9.37428 | -79.86697 | 532 ft | 96 kts | 2° |
| 2026-05-06 22:56 | 9.38071 | -79.86713 | 819 ft | 89 kts | 359° |
| 2026-05-06 22:56 | 9.38623 | -79.86927 | 994 ft | 90 kts | 308° |
| 2026-05-06 22:56 | 9.38712 | -79.87642 | 952 ft | 114 kts | 275° |
| 2026-05-06 22:56 | 9.38670 | -79.88414 | 1013 ft | 112 kts | 258° |
| 2026-05-06 22:57 | 9.38058 | -79.88861 | 1028 ft | 118 kts | 182° |
| 2026-05-06 22:57 | 9.37255 | -79.88852 | 1116 ft | 112 kts | 181° |
| 2026-05-06 22:57 | 9.36457 | -79.88883 | 1056 ft | 118 kts | 181° |
| 2026-05-06 22:57 | 9.35648 | -79.88895 | 1150 ft | 111 kts | 181° |
| 2026-05-06 22:58 | 9.35008 | -79.88914 | 1149 ft | 116 kts | 179° |
| 2026-05-06 22:58 | 9.34232 | -79.88931 | 1156 ft | 102 kts | 183° |
| 2026-05-06 22:58 | 9.33755 | -79.88943 | 1026 ft | 105 kts | 180° |
| 2026-05-06 22:59 | 9.33745 | -79.88943 | 1024 ft | 105 kts | 180° |
| 2026-05-06 22:59 | 9.33020 | -79.88946 | 883 ft | 103 kts | 179° |
| 2026-05-06 22:59 | 9.32498 | -79.88599 | 697 ft | 91 kts | 96° |
| 2026-05-06 23:00 | 9.32432 | -79.87954 | 725 ft | 89 kts | 88° |
| 2026-05-06 23:00 | 9.32354 | -79.87325 | 691 ft | 94 kts | 93° |
| 2026-05-06 23:00 | 9.32618 | -79.86809 | 581 ft | 90 kts | 13° |
| 2026-05-06 23:00 | 9.33242 | -79.86837 | 558 ft | 84 kts | 1° |
| 2026-05-06 23:01 | 9.33759 | -79.86791 | 481 ft | 72 kts | 1° |
| 2026-05-06 23:01 | 9.34265 | -79.86801 | 336 ft | 68 kts | 359° |
| 2026-05-06 23:01 | 9.34783 | -79.86773 | 101 ft | 73 kts | 2° |
| 2026-05-06 23:01 | 9.35212 | -79.86755 | 30 ft | 49 kts | 2° |
| 2026-05-06 23:02 | 9.35339 | -79.86752 | 31 ft | 39 kts | 0° |
| 2026-05-06 23:07 | 9.35348 | -79.86752 | 31 ft | 39 kts | 360° |
| 2026-05-06 23:10 | 9.35353 | -79.86752 | 31 ft | 38 kts | 360° |
| 2026-05-06 23:11 | 9.35663 | -79.86743 | 30 ft | 64 kts | 3° |
| 2026-05-06 23:11 | 9.36165 | -79.86729 | 162 ft | 75 kts | 1° |
| 2026-05-06 23:11 | 9.36688 | -79.86717 | 385 ft | 74 kts | 1° |
| 2026-05-06 23:11 | 9.37217 | -79.86682 | 541 ft | 79 kts | 3° |
| 2026-05-06 23:12 | 9.37818 | -79.86693 | 748 ft | 89 kts | 0° |
| 2026-05-06 23:12 | 9.38418 | -79.86713 | 918 ft | 89 kts | 343° |
| 2026-05-06 23:12 | 9.38748 | -79.87241 | 1057 ft | 101 kts | 270° |
| 2026-05-06 23:12 | 9.38697 | -79.87960 | 1087 ft | 103 kts | 268° |
| 2026-05-06 23:13 | 9.38428 | -79.88630 | 1087 ft | 115 kts | 217° |
| 2026-05-06 23:13 | 9.37624 | -79.88762 | 1063 ft | 119 kts | 180° |
| 2026-05-06 23:13 | 9.36792 | -79.88754 | 1089 ft | 118 kts | 178° |
| 2026-05-06 23:13 | 9.35984 | -79.88777 | 1131 ft | 112 kts | 184° |
| 2026-05-06 23:14 | 9.35207 | -79.88804 | 1200 ft | 112 kts | 179° |
| 2026-05-06 23:14 | 9.34392 | -79.88799 | 1114 ft | 115 kts | 177° |
| 2026-05-06 23:14 | 9.33650 | -79.88827 | 1036 ft | 104 kts | 183° |
| 2026-05-06 23:14 | 9.32936 | -79.88792 | 920 ft | 102 kts | 164° |
| 2026-05-06 23:15 | 9.32529 | -79.88291 | 860 ft | 89 kts | 90° |
| 2026-05-06 23:15 | 9.32498 | -79.87674 | 769 ft | 90 kts | 91° |
| 2026-05-06 23:15 | 9.32445 | -79.87054 | 669 ft | 90 kts | 79° |
| 2026-05-06 23:15 | 9.32843 | -79.86730 | 532 ft | 86 kts | 349° |
| 2026-05-06 23:16 | 9.33383 | -79.86763 | 433 ft | 77 kts | 355° |
| 2026-05-06 23:16 | 9.33853 | -79.86774 | 395 ft | 76 kts | 354° |
| 2026-05-06 23:16 | 9.34104 | -79.86805 | 388 ft | 67 kts | 354° |
| 2026-05-06 23:16 | 9.34566 | -79.86784 | 198 ft | 71 kts | 4° |
| 2026-05-06 23:17 | 9.35010 | -79.86765 | 49 ft | 57 kts | 4° |
| 2026-05-06 23:17 | 9.35313 | -79.86753 | 31 ft | 33 kts | 4° |
| 2026-05-06 23:17 | 9.35329 | -79.86752 | 28 ft | 32 kts | 2° |
| 2026-05-06 23:18 | 9.35389 | -79.86750 | 31 ft | 28 kts | 2° |
| 2026-05-06 23:18 | 9.35701 | -79.86740 | 27 ft | 66 kts | 0° |
| 2026-05-06 23:19 | 9.36214 | -79.86728 | 147 ft | 78 kts | 1° |
| 2026-05-06 23:19 | 9.36749 | -79.86722 | 362 ft | 78 kts | 1° |
| 2026-05-06 23:19 | 9.37292 | -79.86703 | 589 ft | 76 kts | 2° |
| 2026-05-06 23:19 | 9.37865 | -79.86713 | 788 ft | 87 kts | 1° |
| 2026-05-06 23:20 | 9.38455 | -79.86706 | 983 ft | 87 kts | 1° |
| 2026-05-06 23:20 | 9.39024 | -79.86494 | 1091 ft | 96 kts | 49° |
| 2026-05-06 23:20 | 9.39104 | -79.85818 | 1192 ft | 103 kts | 93° |
| 2026-05-06 23:20 | 9.39017 | -79.85094 | 1323 ft | 104 kts | 91° |
| 2026-05-06 23:21 | 9.38746 | -79.84386 | 1380 ft | 118 kts | 130° |
| 2026-05-06 23:21 | 9.37967 | -79.84123 | 1389 ft | 132 kts | 184° |
| 2026-05-06 23:21 | 9.37047 | -79.84192 | 1405 ft | 135 kts | 183° |
| 2026-05-06 23:21 | 9.36106 | -79.84290 | 1430 ft | 137 kts | 185° |
| 2026-05-06 23:22 | 9.35159 | -79.84354 | 1456 ft | 137 kts | 182° |
| 2026-05-06 23:22 | 9.34225 | -79.84388 | 1522 ft | 135 kts | 181° |
| 2026-05-06 23:22 | 9.33294 | -79.84413 | 1607 ft | 134 kts | 182° |
| 2026-05-06 23:22 | 9.32379 | -79.84431 | 1670 ft | 130 kts | 181° |
| 2026-05-06 23:23 | 9.31472 | -79.84454 | 1753 ft | 132 kts | 181° |
| 2026-05-06 23:23 | 9.30557 | -79.84488 | 1822 ft | 131 kts | 181° |
| 2026-05-06 23:23 | 9.29638 | -79.84522 | 1890 ft | 133 kts | 181° |
| 2026-05-06 23:23 | 9.28716 | -79.84558 | 1967 ft | 133 kts | 181° |
| 2026-05-06 23:24 | 9.27781 | -79.84592 | 2035 ft | 135 kts | 181° |
| 2026-05-06 23:24 | 9.26849 | -79.84624 | 2111 ft | 134 kts | 182° |
| 2026-05-06 23:24 | 9.25918 | -79.84656 | 2183 ft | 134 kts | 181° |
| 2026-05-06 23:24 | 9.25006 | -79.84691 | 2252 ft | 129 kts | 181° |
| 2026-05-06 23:25 | 9.24125 | -79.84727 | 2332 ft | 129 kts | 182° |
| 2026-05-06 23:25 | 9.23211 | -79.84766 | 2399 ft | 132 kts | 181° |
| 2026-05-06 23:25 | 9.22291 | -79.84792 | 2473 ft | 133 kts | 180° |
| 2026-05-06 23:25 | 9.21368 | -79.84805 | 2545 ft | 132 kts | 181° |
| 2026-05-06 23:26 | 9.20455 | -79.84812 | 2613 ft | 130 kts | 179° |
| 2026-05-06 23:26 | 9.19549 | -79.84833 | 2686 ft | 131 kts | 181° |
| 2026-05-06 23:26 | 9.18647 | -79.84843 | 2754 ft | 128 kts | 181° |
| 2026-05-06 23:26 | 9.17754 | -79.84865 | 2830 ft | 130 kts | 181° |
| 2026-05-06 23:27 | 9.16847 | -79.84887 | 2908 ft | 131 kts | 182° |
| 2026-05-06 23:27 | 9.15932 | -79.84912 | 2980 ft | 131 kts | 181° |
| 2026-05-06 23:27 | 9.15015 | -79.84936 | 3054 ft | 133 kts | 181° |
| 2026-05-06 23:27 | 9.14120 | -79.84811 | 3115 ft | 129 kts | 164° |
| 2026-05-06 23:28 | 9.13252 | -79.84575 | 3189 ft | 130 kts | 163° |
| 2026-05-06 23:28 | 9.12374 | -79.84341 | 3263 ft | 132 kts | 163° |
| 2026-05-06 23:28 | 9.11479 | -79.84104 | 3333 ft | 133 kts | 163° |
| 2026-05-06 23:28 | 9.10573 | -79.83865 | 3411 ft | 136 kts | 163° |
| 2026-05-06 23:29 | 9.09654 | -79.83631 | 3475 ft | 135 kts | 163° |
| 2026-05-06 23:29 | 9.08744 | -79.83386 | 3549 ft | 135 kts | 163° |
| 2026-05-06 23:29 | 9.07842 | -79.83144 | 3618 ft | 136 kts | 163° |
| 2026-05-06 23:29 | 9.06926 | -79.82900 | 3688 ft | 136 kts | 163° |
| 2026-05-06 23:30 | 9.06008 | -79.82652 | 3764 ft | 137 kts | 163° |
| 2026-05-06 23:30 | 9.05089 | -79.82402 | 3833 ft | 136 kts | 163° |
| 2026-05-06 23:30 | 9.04171 | -79.82149 | 3910 ft | 137 kts | 163° |
| 2026-05-06 23:30 | 9.03269 | -79.81908 | 3973 ft | 133 kts | 163° |
| 2026-05-06 23:31 | 9.02376 | -79.81664 | 4049 ft | 133 kts | 163° |
| 2026-05-06 23:31 | 9.01476 | -79.81419 | 4118 ft | 135 kts | 163° |
| 2026-05-06 23:31 | 9.00572 | -79.81173 | 4192 ft | 134 kts | 163° |
| 2026-05-06 23:31 | 8.99676 | -79.80925 | 4269 ft | 133 kts | 163° |
| 2026-05-06 23:32 | 8.98780 | -79.80675 | 4341 ft | 134 kts | 163° |
| 2026-05-06 23:32 | 8.97882 | -79.80429 | 4410 ft | 133 kts | 163° |
| 2026-05-06 23:32 | 8.96989 | -79.80182 | 4492 ft | 133 kts | 163° |
| 2026-05-06 23:32 | 8.96077 | -79.79928 | 4500 ft | 138 kts | 163° |
| 2026-05-06 23:33 | 8.95141 | -79.79670 | 4506 ft | 141 kts | 163° |
| 2026-05-06 23:33 | 8.94183 | -79.79414 | 4505 ft | 144 kts | 163° |
| 2026-05-06 23:33 | 8.93214 | -79.79145 | 4503 ft | 144 kts | 163° |
| 2026-05-06 23:33 | 8.92243 | -79.78872 | 4506 ft | 145 kts | 163° |
| 2026-05-06 23:34 | 8.91280 | -79.78605 | 4502 ft | 145 kts | 163° |
| 2026-05-06 23:34 | 8.90303 | -79.78329 | 4504 ft | 146 kts | 163° |
| 2026-05-06 23:34 | 8.89324 | -79.78051 | 4503 ft | 146 kts | 163° |
| 2026-05-06 23:34 | 8.88343 | -79.77776 | 4505 ft | 146 kts | 163° |
| 2026-05-06 23:35 | 8.87361 | -79.77497 | 4505 ft | 147 kts | 163° |
| 2026-05-06 23:35 | 8.86375 | -79.77222 | 4506 ft | 146 kts | 163° |
| 2026-05-06 23:35 | 8.85395 | -79.76946 | 4505 ft | 146 kts | 163° |
| 2026-05-06 23:35 | 8.84412 | -79.76670 | 4503 ft | 147 kts | 163° |
| 2026-05-06 23:36 | 8.83760 | -79.76486 | 4506 ft | 146 kts | 163° |
| 2026-05-06 23:36 | 8.82783 | -79.76213 | 4505 ft | 145 kts | 163° |
| 2026-05-06 23:36 | 8.81808 | -79.75939 | 4502 ft | 145 kts | 163° |
| 2026-05-06 23:36 | 8.80834 | -79.75666 | 4503 ft | 145 kts | 163° |
| 2026-05-06 23:37 | 8.79860 | -79.75392 | 4504 ft | 145 kts | 163° |
| 2026-05-06 23:37 | 8.78885 | -79.75119 | 4504 ft | 145 kts | 163° |
| 2026-05-06 23:37 | 8.77912 | -79.74847 | 4506 ft | 145 kts | 164° |
| 2026-05-06 23:37 | 8.76935 | -79.74572 | 4506 ft | 146 kts | 163° |
| 2026-05-06 23:38 | 8.75958 | -79.74302 | 4505 ft | 145 kts | 163° |
| 2026-05-06 23:38 | 8.74995 | -79.74034 | 4505 ft | 145 kts | 163° |
| 2026-05-06 23:38 | 8.74022 | -79.73763 | 4504 ft | 145 kts | 163° |
| 2026-05-06 23:38 | 8.73046 | -79.73492 | 4509 ft | 146 kts | 164° |
| 2026-05-06 23:39 | 8.72064 | -79.73214 | 4512 ft | 146 kts | 163° |
| 2026-05-06 23:39 | 8.71083 | -79.72937 | 4506 ft | 146 kts | 163° |
| 2026-05-06 23:39 | 8.70100 | -79.72667 | 4514 ft | 147 kts | 164° |
| 2026-05-06 23:39 | 8.69114 | -79.72391 | 4509 ft | 147 kts | 163° |
| 2026-05-06 23:40 | 8.68132 | -79.72115 | 4514 ft | 147 kts | 163° |
| 2026-05-06 23:40 | 8.67142 | -79.71865 | 4490 ft | 143 kts | 167° |
| 2026-05-06 23:40 | 8.66151 | -79.71700 | 4200 ft | 149 kts | 173° |
| 2026-05-06 23:40 | 8.65122 | -79.71615 | 3981 ft | 149 kts | 180° |
| 2026-05-06 23:41 | 8.64119 | -79.71711 | 3821 ft | 144 kts | 192° |
| 2026-05-06 23:41 | 8.63184 | -79.72035 | 3746 ft | 133 kts | 210° |
| 2026-05-06 23:41 | 8.62447 | -79.72552 | 3657 ft | 132 kts | 224° |
| 2026-05-06 23:41 | 8.61830 | -79.73264 | 3475 ft | 132 kts | 238° |
| 2026-05-06 23:42 | 8.61323 | -79.74018 | 3356 ft | 130 kts | 240° |
| 2026-05-06 23:42 | 8.60872 | -79.74807 | 3218 ft | 128 kts | 247° |
| 2026-05-06 23:42 | 8.60460 | -79.75605 | 3081 ft | 127 kts | 245° |
| 2026-05-06 23:42 | 8.60009 | -79.76391 | 2883 ft | 132 kts | 241° |
| 2026-05-06 23:43 | 8.59519 | -79.77175 | 2668 ft | 134 kts | 243° |
| 2026-05-06 23:43 | 8.59057 | -79.77974 | 2564 ft | 126 kts | 244° |
| 2026-05-06 23:43 | 8.58631 | -79.78769 | 2301 ft | 134 kts | 244° |
| 2026-05-06 23:43 | 8.58191 | -79.79558 | 2160 ft | 127 kts | 248° |
| 2026-05-06 23:44 | 8.57775 | -79.80361 | 1958 ft | 126 kts | 246° |
| 2026-05-06 23:44 | 8.57392 | -79.81142 | 1741 ft | 130 kts | 249° |
| 2026-05-06 23:44 | 8.57043 | -79.81969 | 1623 ft | 123 kts | 253° |
| 2026-05-06 23:44 | 8.56814 | -79.82818 | 1373 ft | 128 kts | 265° |
| 2026-05-06 23:45 | 8.56665 | -79.83696 | 1218 ft | 125 kts | 259° |
| 2026-05-06 23:45 | 8.56441 | -79.84545 | 1069 ft | 123 kts | 258° |
| 2026-05-06 23:45 | 8.56130 | -79.85343 | 973 ft | 120 kts | 244° |
| 2026-05-06 23:45 | 8.55937 | -79.85703 | 905 ft | 120 kts | 244° |
| 2026-05-06 23:46 | 8.55561 | -79.86438 | 896 ft | 109 kts | 246° |
| 2026-05-06 23:46 | 8.55224 | -79.87152 | 795 ft | 110 kts | 252° |
| 2026-05-06 23:46 | 8.55164 | -79.87897 | 732 ft | 109 kts | 284° |
| 2026-05-06 23:46 | 8.55590 | -79.88484 | 726 ft | 103 kts | 324° |
| 2026-05-06 23:47 | 8.56232 | -79.88810 | 670 ft | 103 kts | 345° |
| 2026-05-06 23:47 | 8.56949 | -79.88896 | 601 ft | 105 kts | 354° |
| 2026-05-06 23:47 | 8.57057 | -79.88909 | 583 ft | 106 kts | 354° |
| 2026-05-06 23:47 | 8.57367 | -79.88948 | 565 ft | 102 kts | 353° |
| 2026-05-06 23:48 | 8.57998 | -79.89019 | 394 ft | 87 kts | 357° |
| 2026-05-06 23:48 | 8.58582 | -79.88990 | 162 ft | 75 kts | 8° |
| 2026-05-06 23:48 | 8.59046 | -79.88956 | 142 ft | 65 kts | 2° |
| 2026-05-06 23:48 | 8.59503 | -79.88920 | 209 ft | 64 kts | 5° |
| 2026-05-06 23:49 | 8.59980 | -79.88857 | 314 ft | 71 kts | 15° |
| 2026-05-06 23:49 | 8.60367 | -79.88525 | 428 ft | 74 kts | 60° |
| 2026-05-06 23:49 | 8.60426 | -79.87984 | 492 ft | 89 kts | 95° |
| 2026-05-06 23:49 | 8.60207 | -79.87450 | 756 ft | 80 kts | 123° |
| 2026-05-06 23:50 | 8.59881 | -79.86965 | 908 ft | 87 kts | 117° |
| 2026-05-06 23:50 | 8.59523 | -79.85894 | 1342 ft | 73 kts | 81° |
| 2026-05-06 23:50 | 8.59605 | -79.85414 | 1602 ft | 63 kts | 64° |
| 2026-05-06 23:51 | 8.59806 | -79.84988 | 1775 ft | 74 kts | 53° |
| 2026-05-06 23:51 | 8.60056 | -79.84475 | 1927 ft | 91 kts | 59° |
| 2026-05-06 23:51 | 8.60355 | -79.83802 | 1992 ft | 112 kts | 65° |
| 2026-05-06 23:51 | 8.60547 | -79.83032 | 2137 ft | 113 kts | 77° |
| 2026-05-06 23:52 | 8.60539 | -79.82247 | 2281 ft | 113 kts | 95° |
| 2026-05-06 23:52 | 8.60334 | -79.81459 | 2402 ft | 118 kts | 108° |
| 2026-05-06 23:52 | 8.60065 | -79.80676 | 2477 ft | 121 kts | 102° |
| 2026-05-06 23:52 | 8.59867 | -79.79855 | 2624 ft | 119 kts | 98° |
| 2026-05-06 23:53 | 8.59796 | -79.79025 | 2581 ft | 122 kts | 89° |
| 2026-05-06 23:53 | 8.59693 | -79.78168 | 2676 ft | 124 kts | 98° |
| 2026-05-06 23:53 | 8.59457 | -79.77346 | 2847 ft | 120 kts | 107° |
| 2026-05-06 23:53 | 8.59192 | -79.76612 | 3084 ft | 109 kts | 98° |
| 2026-05-06 23:54 | 8.59093 | -79.75817 | 3138 ft | 115 kts | 93° |
| 2026-05-06 23:54 | 8.59167 | -79.75023 | 3246 ft | 114 kts | 69° |
| 2026-05-06 23:54 | 8.59461 | -79.74292 | 3311 ft | 117 kts | 63° |
| 2026-05-06 23:54 | 8.59760 | -79.73513 | 3383 ft | 119 kts | 68° |
| 2026-05-06 23:55 | 8.60160 | -79.72794 | 3440 ft | 119 kts | 49° |
| 2026-05-06 23:55 | 8.60657 | -79.72129 | 3536 ft | 115 kts | 45° |
| 2026-05-06 23:55 | 8.61308 | -79.71672 | 3599 ft | 117 kts | 31° |
| 2026-05-06 23:55 | 8.61921 | -79.71142 | 3734 ft | 114 kts | 41° |
| 2026-05-06 23:56 | 8.62500 | -79.70600 | 3835 ft | 114 kts | 38° |
| 2026-05-06 23:56 | 8.63135 | -79.70111 | 3947 ft | 113 kts | 33° |
| 2026-05-06 23:56 | 8.63747 | -79.69571 | 3946 ft | 122 kts | 38° |
| 2026-05-06 23:56 | 8.64356 | -79.69038 | 4165 ft | 109 kts | 41° |
| 2026-05-06 23:57 | 8.64897 | -79.68448 | 4188 ft | 120 kts | 49° |
| 2026-05-06 23:57 | 8.65431 | -79.67819 | 4344 ft | 114 kts | 48° |
| 2026-05-06 23:57 | 8.65870 | -79.67169 | 4422 ft | 117 kts | 56° |
| 2026-05-06 23:57 | 8.66371 | -79.66499 | 4485 ft | 118 kts | 43° |
| 2026-05-06 23:58 | 8.66911 | -79.65893 | 4616 ft | 116 kts | 48° |
| 2026-05-06 23:58 | 8.67481 | -79.65301 | 4661 ft | 119 kts | 44° |
| 2026-05-06 23:58 | 8.67989 | -79.64650 | 4775 ft | 117 kts | 53° |
| 2026-05-06 23:58 | 8.68537 | -79.64044 | 4831 ft | 116 kts | 44° |
| 2026-05-06 23:59 | 8.69076 | -79.63439 | 4800 ft | 118 kts | 49° |
| 2026-05-06 23:59 | 8.69622 | -79.62815 | 4757 ft | 119 kts | 45° |
| 2026-05-06 23:59 | 8.70326 | -79.62312 | 4545 ft | 129 kts | 25° |
| 2026-05-06 23:59 | 8.71213 | -79.61940 | 4020 ft | 152 kts | 20° |
| 2026-05-07 00:00 | 8.72184 | -79.61610 | 3749 ft | 149 kts | 23° |
| 2026-05-07 00:00 | 8.72923 | -79.60868 | 3555 ft | 141 kts | 47° |
| 2026-05-07 00:00 | 8.73506 | -79.60189 | 3655 ft | 120 kts | 51° |
| 2026-05-07 00:00 | 8.74003 | -79.59564 | 3642 ft | 114 kts | 37° |
| 2026-05-07 00:01 | 8.74706 | -79.59157 | 3543 ft | 114 kts | 20° |
| 2026-05-07 00:01 | 8.75435 | -79.58897 | 3518 ft | 112 kts | 21° |
| 2026-05-07 00:01 | 8.76130 | -79.58512 | 3428 ft | 116 kts | 36° |
| 2026-05-07 00:01 | 8.76650 | -79.57894 | 3421 ft | 113 kts | 51° |
| 2026-05-07 00:02 | 8.77201 | -79.57319 | 3285 ft | 119 kts | 46° |
| 2026-05-07 00:02 | 8.77622 | -79.56600 | 3264 ft | 114 kts | 64° |
| 2026-05-07 00:02 | 8.77898 | -79.55883 | 3280 ft | 109 kts | 69° |
| 2026-05-07 00:02 | 8.78207 | -79.55180 | 3218 ft | 108 kts | 54° |
| 2026-05-07 00:03 | 8.78762 | -79.54722 | 3185 ft | 108 kts | 22° |
| 2026-05-07 00:03 | 8.79514 | -79.54545 | 3088 ft | 113 kts | 6° |
| 2026-05-07 00:03 | 8.80307 | -79.54515 | 3037 ft | 112 kts | 359° |
| 2026-05-07 00:03 | 8.81083 | -79.54522 | 2983 ft | 112 kts | 2° |
| 2026-05-07 00:04 | 8.81867 | -79.54501 | 2899 ft | 113 kts | 1° |
| 2026-05-07 00:04 | 8.82643 | -79.54479 | 2844 ft | 112 kts | 3° |
| 2026-05-07 00:04 | 8.83425 | -79.54398 | 2753 ft | 113 kts | 4° |
| 2026-05-07 00:04 | 8.84208 | -79.54438 | 2696 ft | 113 kts | 353° |
| 2026-05-07 00:05 | 8.84983 | -79.54573 | 2676 ft | 113 kts | 344° |
| 2026-05-07 00:05 | 8.85154 | -79.55228 | 2583 ft | 124 kts | 224° |
| 2026-05-07 00:05 | 8.84446 | -79.55031 | 2444 ft | 129 kts | 105° |
| 2026-05-07 00:05 | 8.84893 | -79.54491 | 2472 ft | 112 kts | 351° |
| 2026-05-07 00:06 | 8.85663 | -79.54657 | 2425 ft | 112 kts | 353° |
| 2026-05-07 00:06 | 8.86111 | -79.54162 | 2286 ft | 127 kts | 116° |
| 2026-05-07 00:06 | 8.85448 | -79.54294 | 2163 ft | 125 kts | 269° |
| 2026-05-07 00:06 | 8.86074 | -79.54687 | 2060 ft | 123 kts | 359° |
| 2026-05-07 00:07 | 8.86883 | -79.54747 | 2132 ft | 112 kts | 354° |
| 2026-05-07 00:07 | 8.87649 | -79.54822 | 2150 ft | 109 kts | 356° |
| 2026-05-07 00:07 | 8.88402 | -79.54833 | 2116 ft | 111 kts | 357° |
| 2026-05-07 00:07 | 8.89156 | -79.54886 | 2128 ft | 108 kts | 356° |
| 2026-05-07 00:08 | 8.89925 | -79.54886 | 2061 ft | 111 kts | 358° |
| 2026-05-07 00:08 | 8.90667 | -79.54938 | 1993 ft | 105 kts | 351° |
| 2026-05-07 00:08 | 8.91405 | -79.55104 | 1709 ft | 107 kts | 347° |
| 2026-05-07 00:08 | 8.92128 | -79.55298 | 1347 ft | 109 kts | 346° |
| 2026-05-07 00:09 | 8.92873 | -79.55446 | 1032 ft | 107 kts | 349° |
| 2026-05-07 00:09 | 8.93613 | -79.55550 | 687 ft | 108 kts | 349° |
| 2026-05-07 00:09 | 8.94328 | -79.55704 | 513 ft | 96 kts | 348° |
| 2026-05-07 00:09 | 8.94915 | -79.55775 | 452 ft | 83 kts | 358° |
| 2026-05-07 00:10 | 8.95460 | -79.55735 | 361 ft | 78 kts | 4° |
| 2026-05-07 00:10 | 8.95992 | -79.55682 | 220 ft | 77 kts | 3° |
| 2026-05-07 00:10 | 8.96006 | -79.55681 | 215 ft | 77 kts | 4° |
| 2026-05-07 00:11 | 8.96484 | -79.55631 | 98 ft | 67 kts | 1° |
| 2026-05-07 00:11 | 8.96927 | -79.55592 | 36 ft | 53 kts | 3° |
| 2026-05-07 00:11 | 8.97220 | -79.55570 | 29 ft | 35 kts | 10° |
| 2026-05-07 00:11 | 8.97409 | -79.55548 | 28 ft | 19 kts | 14° |
| 2026-05-07 00:12 | 8.97557 | -79.55538 | 29 ft | 23 kts | 2° |
| 2026-05-07 00:12 | 8.97628 | -79.55607 | 29 ft | 12 kts | 252° |
| 2026-05-07 00:12 | 8.97542 | -79.55658 | 28 ft | 19 kts | 204° |
| 2026-05-07 00:12 | 8.97402 | -79.55721 | 28 ft | 25 kts | 213° |
| 2026-05-07 00:13 | 8.97237 | -79.55793 | 29 ft | 28 kts | 216° |
| 2026-05-07 00:13 | 8.97078 | -79.55907 | 29 ft | 15 kts | 219° |
| 2026-05-07 00:13 | 8.97059 | -79.55922 | 29 ft | 6 kts | 202° |
| 2026-05-07 00:13 | 8.97026 | -79.55915 | 29 ft | 3 kts | 71° |
| 2026-05-07 00:14 | 8.97098 | -79.55888 | 29 ft | 20 kts | 19° |
| 2026-05-07 00:14 | 8.97096 | -79.55807 | 29 ft | 19 kts | 103° |
| 2026-05-07 00:14 | 8.96978 | -79.55793 | 28 ft | 26 kts | 186° |
| 2026-05-07 00:14 | 8.96876 | -79.55813 | 28 ft | 5 kts | 261° |
| 2026-05-07 00:15 | 8.96877 | -79.55817 | 28 ft | 0 kts | 283° |